createdAt,value
2019-04-07T00:01:05.185Z,11.20
2019-04-07T00:02:11.053Z,11.20
2019-04-07T00:03:16.247Z,11.20
2019-04-07T00:04:21.574Z,11.20
2019-04-07T00:05:26.767Z,11.20
2019-04-07T00:06:31.833Z,11.20
2019-04-07T00:07:36.865Z,11.10
2019-04-07T00:08:43.266Z,11.10
2019-04-07T00:09:48.342Z,11.10
2019-04-07T00:10:53.368Z,11.10
2019-04-07T00:12:00.461Z,11.10
2019-04-07T00:13:05.768Z,11.00
2019-04-07T00:14:11.116Z,11.00
2019-04-07T00:15:16.839Z,11.00
2019-04-07T00:16:22.052Z,11.00
2019-04-07T00:17:27.374Z,11.00
2019-04-07T00:18:32.533Z,10.90
2019-04-07T00:19:37.763Z,10.90
2019-04-07T00:20:42.921Z,10.90
2019-04-07T00:21:48.945Z,10.90
2019-04-07T00:22:55.117Z,10.90
2019-04-07T00:24:02.295Z,10.90
2019-04-07T00:25:07.574Z,10.80
2019-04-07T00:26:12.829Z,10.80
2019-04-07T00:27:17.960Z,10.80
2019-04-07T00:28:24.045Z,10.80
2019-04-07T00:29:30.277Z,10.80
2019-04-07T00:30:36.130Z,10.80
2019-04-07T00:31:41.532Z,10.80
2019-04-07T00:32:46.791Z,10.80
2019-04-07T00:33:51.931Z,10.80
2019-04-07T00:34:57.071Z,10.70
2019-04-07T00:36:02.701Z,10.70
2019-04-07T00:37:07.974Z,10.70
2019-04-07T00:38:13.101Z,10.70
2019-04-07T00:39:18.325Z,10.70
2019-04-07T00:40:24.031Z,10.70
2019-04-07T00:41:29.971Z,10.60
2019-04-07T00:42:35.339Z,10.60
2019-04-07T00:43:40.623Z,10.60
2019-04-07T00:44:46.565Z,10.60
2019-04-07T00:45:52.477Z,10.60
2019-04-07T00:46:57.725Z,10.60
2019-04-07T00:48:02.957Z,10.60
2019-04-07T00:49:08.316Z,10.60
2019-04-07T00:50:14.154Z,10.60
2019-04-07T00:51:20.106Z,10.50
2019-04-07T00:52:25.809Z,10.50
2019-04-07T00:53:30.971Z,10.50
2019-04-07T00:54:36.057Z,10.50
2019-04-07T00:55:41.743Z,10.50
2019-04-07T00:56:47.493Z,10.50
2019-04-07T00:57:52.964Z,10.50
2019-04-07T00:58:58.739Z,10.40
2019-04-07T01:00:05.947Z,10.40
2019-04-07T01:01:15.171Z,10.40
2019-04-07T01:02:21.257Z,10.40
2019-04-07T01:03:26.910Z,10.40
2019-04-07T01:04:32.731Z,10.40
2019-04-07T01:05:40.736Z,10.40
2019-04-07T01:06:44.831Z,10.40
2019-04-07T01:07:50.038Z,10.40
2019-04-07T01:08:55.084Z,10.40
2019-04-07T01:10:00.704Z,10.40
2019-04-07T01:11:06.303Z,10.40
2019-04-07T01:23:01.740Z,10.20
2019-04-07T01:24:07.297Z,10.20
2019-04-07T01:25:12.628Z,10.20
2019-04-07T01:26:18.488Z,10.20
2019-04-07T01:27:23.604Z,10.20
2019-04-07T01:28:28.813Z,10.20
2019-04-07T01:29:34.182Z,10.10
2019-04-07T01:30:39.476Z,10.10
2019-04-07T01:31:45.087Z,10.10
2019-04-07T01:32:50.965Z,10.10
2019-04-07T01:33:56.317Z,10.10
2019-04-07T01:35:02.488Z,10.10
2019-04-07T01:36:07.597Z,10.10
2019-04-07T01:37:13.617Z,10.10
2019-04-07T01:38:18.792Z,10.10
2019-04-07T01:39:24.115Z,10.10
2019-04-07T01:40:29.879Z,10.00
2019-04-07T01:41:48.670Z,10.00
2019-04-07T01:43:17.504Z,10.00
2019-04-07T01:44:30.933Z,10.00
2019-04-07T01:45:55.331Z,10.00
2019-04-07T01:47:20.064Z,10.00
2019-04-07T01:48:43.115Z,10.00
2019-04-07T01:50:07.735Z,10.00
2019-04-07T01:51:34.907Z,10.00
2019-04-07T01:52:59.224Z,10.00
2019-04-07T01:54:21.891Z,10.00
2019-04-07T01:55:58.682Z,10.00
2019-04-07T01:57:23.503Z,9.90
2019-04-07T01:58:37.164Z,9.90
2019-04-07T02:00:04.283Z,9.90
2019-04-07T02:01:34.827Z,9.90
2019-04-07T02:02:54.606Z,9.90
2019-04-07T02:04:13.852Z,9.90
2019-04-07T02:05:59.348Z,9.90
2019-04-07T02:07:24.633Z,9.90
2019-04-07T02:08:36.300Z,9.90
2019-04-07T02:10:03.319Z,9.90
2019-04-07T02:11:33.941Z,9.90
2019-04-07T02:12:57.760Z,9.80
2019-04-07T02:14:17.112Z,9.80
2019-04-07T02:15:48.188Z,9.80
2019-04-07T02:17:13.064Z,9.80
2019-04-07T02:18:31.299Z,9.80
2019-04-07T02:19:47.249Z,9.70
2019-04-07T02:21:10.217Z,9.70
2019-04-07T02:22:28.973Z,9.70
2019-04-07T02:23:52.638Z,9.70
2019-04-07T02:25:15.367Z,9.70
2019-04-07T02:26:31.739Z,9.60
2019-04-07T02:27:55.654Z,9.60
2019-04-07T02:29:17.958Z,9.60
2019-04-07T02:30:41.581Z,9.70
2019-04-07T02:32:15.450Z,9.60
2019-04-07T02:33:35.069Z,9.60
2019-04-07T02:34:49.297Z,9.60
2019-04-07T02:36:17.802Z,9.60
2019-04-07T02:37:33.343Z,9.50
2019-04-07T02:38:54.763Z,9.50
2019-04-07T02:40:23.826Z,9.50
2019-04-07T02:41:46.513Z,9.50
2019-04-07T02:43:19.728Z,9.40
2019-04-07T02:44:33.704Z,9.40
2019-04-07T02:46:06.796Z,9.40
2019-04-07T02:47:22.616Z,9.40
2019-04-07T02:48:51.130Z,9.40
2019-04-07T02:50:10.210Z,9.40
2019-04-07T02:51:43.620Z,9.30
2019-04-07T02:53:07.510Z,9.30
2019-04-07T02:54:40.685Z,9.30
2019-04-07T02:56:10.748Z,9.30
2019-04-07T02:57:44.551Z,9.20
2019-04-07T02:59:16.165Z,9.30
2019-04-07T03:00:50.754Z,9.30
2019-04-07T03:02:08.372Z,9.30
2019-04-07T03:03:41.437Z,9.20
2019-04-07T03:05:04.991Z,9.20
2019-04-07T03:06:38.419Z,9.20
2019-04-07T03:07:55.997Z,9.20
2019-04-07T03:09:18.942Z,9.20
2019-04-07T03:10:31.109Z,9.20
2019-04-07T03:11:46.581Z,9.20
2019-04-07T03:13:14.633Z,9.20
2019-04-07T03:14:23.959Z,9.10
2019-04-07T03:15:38.739Z,9.10
2019-04-07T03:17:08.192Z,9.10
2019-04-07T03:18:25.264Z,9.10
2019-04-07T03:19:39.278Z,9.10
2019-04-07T03:21:03.633Z,9.00
2019-04-07T03:22:26.880Z,9.00
2019-04-07T03:23:58.586Z,9.00
2019-04-07T03:25:38.658Z,9.00
2019-04-07T03:27:01.482Z,9.00
2019-04-07T03:28:25.891Z,9.00
2019-04-07T03:29:59.579Z,9.00
2019-04-07T03:31:17.789Z,9.00
2019-04-07T03:32:45.808Z,8.90
2019-04-07T03:34:06.392Z,8.90
2019-04-07T03:35:32.856Z,8.90
2019-04-07T03:37:21.696Z,8.90
2019-04-07T03:38:36.731Z,8.90
2019-04-07T03:40:00.805Z,8.90
2019-04-07T03:41:29.062Z,8.90
2019-04-07T03:42:56.146Z,8.90
2019-04-07T03:44:20.440Z,8.80
2019-04-07T03:45:45.674Z,8.80
2019-04-07T03:47:07.310Z,8.90
2019-04-07T03:48:26.401Z,8.80
2019-04-07T03:50:07.055Z,8.80
2019-04-07T03:51:24.359Z,8.80
2019-04-07T03:52:51.567Z,8.80
2019-04-07T03:54:10.709Z,8.80
2019-04-07T03:55:33.593Z,8.70
2019-04-07T03:56:56.684Z,8.70
2019-04-07T03:58:16.989Z,8.70
2019-04-07T03:59:40.630Z,8.70
2019-04-07T04:01:33.228Z,8.60
2019-04-07T04:02:46.606Z,8.60
2019-04-07T04:04:13.747Z,8.60
2019-04-07T04:05:45.591Z,8.60
2019-04-07T04:07:31.514Z,8.60
2019-04-07T04:08:38.757Z,8.60
2019-04-07T04:10:09.803Z,8.50
2019-04-07T04:11:34.236Z,8.50
2019-04-07T04:12:45.752Z,8.50
2019-04-07T04:14:09.223Z,8.50
2019-04-07T04:15:20.856Z,8.50
2019-04-07T04:16:32.007Z,8.40
2019-04-07T04:17:37.241Z,8.40
2019-04-07T04:18:42.637Z,8.40
2019-04-07T04:19:48.170Z,8.40
2019-04-07T04:20:54.467Z,8.40
2019-04-07T04:22:00.695Z,8.40
2019-04-07T04:23:05.955Z,8.40
2019-04-07T04:24:12.179Z,8.40
2019-04-07T04:25:17.452Z,8.40
2019-04-07T04:26:23.662Z,8.40
2019-04-07T04:27:28.981Z,8.40
2019-04-07T04:28:34.742Z,8.40
2019-04-07T04:29:39.969Z,8.40
2019-04-07T04:30:45.176Z,8.30
2019-04-07T04:31:50.759Z,8.30
2019-04-07T04:32:55.850Z,8.30
2019-04-07T04:34:01.573Z,8.30
2019-04-07T04:35:07.286Z,8.30
2019-04-07T04:36:13.450Z,8.30
2019-04-07T04:37:34.536Z,8.30
2019-04-07T04:38:26.243Z,8.30
2019-04-07T04:39:31.534Z,8.30
2019-04-07T04:40:37.502Z,8.20
2019-04-07T04:41:42.766Z,8.30
2019-04-07T04:42:48.513Z,8.20
2019-04-07T04:43:54.718Z,8.20
2019-04-07T04:45:00.641Z,8.20
2019-04-07T04:46:09.525Z,8.20
2019-04-07T04:47:13.512Z,8.20
2019-04-07T04:48:19.574Z,8.20
2019-04-07T04:49:24.944Z,8.20
2019-04-07T04:50:30.479Z,8.20
2019-04-07T04:51:39.291Z,8.10
2019-04-07T04:52:42.845Z,8.10
2019-04-07T04:53:50.408Z,8.10
2019-04-07T04:54:55.917Z,8.10
2019-04-07T04:56:01.027Z,8.10
2019-04-07T04:57:08.954Z,8.10
2019-04-07T04:58:13.269Z,8.10
2019-04-07T04:59:18.354Z,8.10
2019-04-07T05:00:24.402Z,8.10
2019-04-07T05:01:29.793Z,8.10
2019-04-07T05:02:35.238Z,8.10
2019-04-07T05:03:40.566Z,8.10
2019-04-07T05:04:45.922Z,8.10
2019-04-07T05:05:51.245Z,8.10
2019-04-07T05:06:56.995Z,8.10
2019-04-07T05:08:05.078Z,8.10
2019-04-07T05:09:09.168Z,8.10
2019-04-07T05:10:14.173Z,8.10
2019-04-07T05:11:19.239Z,8.20
2019-04-07T05:12:24.440Z,8.20
2019-04-07T05:13:29.586Z,8.30
2019-04-07T05:14:36.096Z,8.30
2019-04-07T05:15:41.250Z,8.30
2019-04-07T05:16:46.447Z,8.40
2019-04-07T05:17:51.647Z,8.40
2019-04-07T05:18:57.330Z,8.40
2019-04-07T05:20:02.668Z,8.40
2019-04-07T05:21:08.758Z,8.40
2019-04-07T05:22:14.497Z,8.50
2019-04-07T05:23:20.554Z,8.50
2019-04-07T05:24:25.901Z,8.50
2019-04-07T05:25:31.078Z,8.50
2019-04-07T05:26:36.557Z,8.50
2019-04-07T05:27:42.440Z,8.50
2019-04-07T05:28:48.372Z,8.60
2019-04-07T05:29:53.563Z,8.70
2019-04-07T05:30:59.110Z,8.70
2019-04-07T05:32:04.590Z,8.80
2019-04-07T05:33:09.965Z,8.80
2019-04-07T05:34:19.308Z,8.90
2019-04-07T05:35:22.428Z,8.90
2019-04-07T05:36:27.726Z,9.00
2019-04-07T05:37:32.917Z,9.10
2019-04-07T05:38:39.536Z,9.20
2019-04-07T05:39:44.804Z,9.20
2019-04-07T05:40:50.102Z,9.30
2019-04-07T05:41:55.211Z,9.40
2019-04-07T05:43:00.788Z,9.50
2019-04-07T05:44:06.343Z,9.60
2019-04-07T05:45:11.631Z,9.70
2019-04-07T05:46:17.660Z,9.80
2019-04-07T05:47:22.883Z,9.90
2019-04-07T05:48:28.020Z,10.00
2019-04-07T05:49:33.391Z,10.10
2019-04-07T05:50:38.673Z,10.20
2019-04-07T05:51:44.570Z,10.30
2019-04-07T05:52:50.014Z,10.40
2019-04-07T05:53:55.094Z,10.50
2019-04-07T05:55:00.147Z,10.60
2019-04-07T05:56:06.002Z,10.70
2019-04-07T05:57:11.902Z,10.80
2019-04-07T05:58:17.926Z,10.90
2019-04-07T05:59:23.163Z,11.00
2019-04-07T06:00:28.589Z,11.10
2019-04-07T06:01:34.479Z,11.20
2019-04-07T06:02:39.792Z,11.20
2019-04-07T06:03:45.768Z,11.40
2019-04-07T06:04:51.353Z,11.50
2019-04-07T06:05:57.207Z,11.60
2019-04-07T06:07:03.605Z,11.70
2019-04-07T06:08:22.397Z,11.80
2019-04-07T06:09:19.456Z,11.90
2019-04-07T06:10:26.444Z,12.00
2019-04-07T06:11:33.095Z,12.10
2019-04-07T06:12:39.322Z,12.30
2019-04-07T06:13:44.634Z,12.40
2019-04-07T06:14:51.276Z,12.50
2019-04-07T06:15:57.555Z,12.60
2019-04-07T06:17:02.899Z,12.70
2019-04-07T06:18:08.341Z,12.80
2019-04-07T06:19:13.490Z,12.80
2019-04-07T06:20:18.948Z,12.90
2019-04-07T06:21:24.354Z,13.00
2019-04-07T06:22:29.585Z,13.10
2019-04-07T06:23:35.412Z,13.10
2019-04-07T06:24:40.695Z,13.20
2019-04-07T06:25:46.416Z,13.30
2019-04-07T06:26:53.278Z,13.40
2019-04-07T06:27:58.878Z,13.50
2019-04-07T06:29:04.776Z,13.70
2019-04-07T06:30:10.948Z,13.70
2019-04-07T06:31:16.241Z,13.80
2019-04-07T06:32:21.894Z,13.90
2019-04-07T06:33:27.529Z,14.00
2019-04-07T06:34:32.665Z,14.10
2019-04-07T06:35:38.032Z,14.10
2019-04-07T06:36:43.175Z,14.20
2019-04-07T06:37:48.316Z,14.30
2019-04-07T06:38:53.705Z,14.30
2019-04-07T06:39:59.276Z,14.30
2019-04-07T06:41:04.407Z,14.40
2019-04-07T06:42:09.657Z,14.50
2019-04-07T06:43:14.735Z,14.60
2019-04-07T06:44:22.467Z,14.60
2019-04-07T06:45:31.642Z,14.80
2019-04-07T06:46:42.377Z,14.90
2019-04-07T06:47:50.907Z,14.90
2019-04-07T06:49:11.324Z,15.10
2019-04-07T06:50:32.315Z,15.20
2019-04-07T06:51:51.333Z,15.30
2019-04-07T06:53:00.485Z,15.40
2019-04-07T06:54:21.613Z,15.40
2019-04-07T06:55:36.265Z,15.50
2019-04-07T06:56:52.173Z,15.50
2019-04-07T06:58:08.307Z,15.60
2019-04-07T06:59:22.946Z,15.60
2019-04-07T07:00:55.059Z,15.70
2019-04-07T07:02:17.530Z,15.70
2019-04-07T07:03:39.471Z,15.70
2019-04-07T07:05:01.578Z,15.80
2019-04-07T07:06:29.448Z,15.80
2019-04-07T07:07:42.540Z,15.80
2019-04-07T07:09:04.608Z,15.90
2019-04-07T07:10:30.352Z,15.90
2019-04-07T07:11:52.234Z,16.10
2019-04-07T07:13:28.325Z,16.20
2019-04-07T07:14:45.947Z,16.10
2019-04-07T07:16:10.456Z,16.10
2019-04-07T07:17:22.491Z,16.10
2019-04-07T07:18:45.883Z,16.20
2019-04-07T07:20:08.680Z,16.20
2019-04-07T07:21:38.738Z,16.30
2019-04-07T07:22:47.814Z,16.30
2019-04-07T07:23:52.908Z,16.40
2019-04-07T07:25:00.303Z,16.50
2019-04-07T07:26:04.904Z,16.60
2019-04-07T07:27:11.357Z,16.70
2019-04-07T07:28:17.355Z,16.70
2019-04-07T07:29:22.635Z,16.80
2019-04-07T07:30:28.283Z,16.80
2019-04-07T07:31:33.567Z,16.70
2019-04-07T07:32:38.920Z,16.70
2019-04-07T07:33:45.035Z,16.80
2019-04-07T07:34:50.765Z,16.90
2019-04-07T07:35:57.039Z,17.00
2019-04-07T07:37:02.306Z,17.20
2019-04-07T07:38:08.079Z,17.20
2019-04-07T07:39:13.858Z,17.20
2019-04-07T07:40:19.644Z,17.10
2019-04-07T07:41:25.379Z,17.10
2019-04-07T07:42:30.817Z,17.00
2019-04-07T07:43:35.948Z,17.00
2019-04-07T07:44:41.740Z,17.00
2019-04-07T07:45:48.113Z,17.10
2019-04-07T07:46:55.459Z,17.20
2019-04-07T07:48:00.951Z,17.20
2019-04-07T07:49:06.225Z,17.30
2019-04-07T07:50:12.100Z,17.20
2019-04-07T07:51:18.349Z,17.30
2019-04-07T07:52:23.491Z,17.30
2019-04-07T07:53:28.721Z,17.40
2019-04-07T07:54:35.221Z,17.50
2019-04-07T07:55:41.074Z,17.60
2019-04-07T07:56:48.704Z,17.60
2019-04-07T07:57:56.720Z,17.70
2019-04-07T07:59:01.599Z,17.80
2019-04-07T08:00:08.458Z,17.90
2019-04-07T08:01:14.854Z,18.00
2019-04-07T08:02:20.824Z,18.00
2019-04-07T08:03:27.220Z,18.00
2019-04-07T08:04:32.421Z,18.00
2019-04-07T08:05:37.632Z,17.80
2019-04-07T08:06:43.583Z,17.80
2019-04-07T08:07:50.184Z,17.90
2019-04-07T08:09:07.395Z,18.00
2019-04-07T08:10:03.014Z,18.10
2019-04-07T08:11:08.110Z,18.30
2019-04-07T08:12:13.309Z,18.30
2019-04-07T08:13:19.004Z,18.40
2019-04-07T08:14:24.244Z,18.50
2019-04-07T08:15:32.197Z,18.50
2019-04-07T08:16:37.283Z,18.50
2019-04-07T08:17:43.117Z,18.50
2019-04-07T08:18:48.328Z,18.50
2019-04-07T08:19:53.413Z,18.50
2019-04-07T08:20:58.962Z,18.50
2019-04-07T08:22:05.629Z,18.70
2019-04-07T08:23:12.116Z,18.70
2019-04-07T08:24:19.189Z,18.90
2019-04-07T08:25:25.070Z,19.00
2019-04-07T08:26:31.838Z,19.00
2019-04-07T08:27:37.100Z,19.10
2019-04-07T08:28:42.715Z,19.20
2019-04-07T08:29:48.551Z,19.30
2019-04-07T08:30:54.422Z,19.20
2019-04-07T08:31:59.682Z,19.40
2019-04-07T08:33:05.692Z,19.50
2019-04-07T08:34:10.979Z,19.50
2019-04-07T08:35:16.520Z,19.50
2019-04-07T08:36:21.611Z,19.50
2019-04-07T08:37:26.862Z,19.50
2019-04-07T08:38:32.166Z,19.60
2019-04-07T08:39:38.728Z,19.60
2019-04-07T08:40:44.548Z,19.50
2019-04-07T08:41:50.655Z,19.50
2019-04-07T08:42:56.214Z,19.40
2019-04-07T08:44:01.740Z,19.40
2019-04-07T08:45:07.174Z,19.30
2019-04-07T08:46:13.618Z,19.30
2019-04-07T08:47:21.924Z,19.20
2019-04-07T08:48:25.789Z,19.20
2019-04-07T08:49:32.816Z,19.20
2019-04-07T08:50:37.964Z,19.30
2019-04-07T08:51:43.768Z,19.50
2019-04-07T08:52:48.955Z,19.50
2019-04-07T08:53:54.696Z,19.60
2019-04-07T08:55:00.004Z,19.70
2019-04-07T08:56:08.178Z,19.90
2019-04-07T08:57:12.227Z,19.90
2019-04-07T08:58:25.222Z,20.00
2019-04-07T08:59:24.143Z,20.00
2019-04-07T09:00:29.999Z,20.10
2019-04-07T09:01:35.175Z,20.20
2019-04-07T09:02:40.516Z,20.10
2019-04-07T09:03:46.068Z,20.00
2019-04-07T09:04:52.451Z,20.00
2019-04-07T09:05:58.489Z,20.00
2019-04-07T09:07:04.370Z,20.10
2019-04-07T09:08:10.377Z,20.20
2019-04-07T09:09:15.691Z,20.10
2019-04-07T09:10:28.670Z,20.10
2019-04-07T09:11:34.572Z,20.30
2019-04-07T09:12:39.692Z,20.20
2019-04-07T09:14:06.036Z,20.10
2019-04-07T09:15:12.842Z,20.20
2019-04-07T09:16:32.217Z,20.20
2019-04-07T09:17:48.492Z,20.20
2019-04-07T09:19:28.817Z,20.30
2019-04-07T09:20:44.899Z,20.40
2019-04-07T09:22:15.509Z,20.40
2019-04-07T09:23:27.527Z,20.40
2019-04-07T09:24:55.190Z,20.50
2019-04-07T09:26:34.374Z,20.50
2019-04-07T09:28:07.648Z,20.60
2019-04-07T09:29:28.128Z,20.70
2019-04-07T09:31:00.287Z,20.80
2019-04-07T09:32:14.484Z,20.90
2019-04-07T09:33:34.755Z,21.10
2019-04-07T09:35:07.500Z,21.10
2019-04-07T09:36:48.484Z,21.20
2019-04-07T09:38:03.198Z,21.20
2019-04-07T09:39:33.919Z,21.40
2019-04-07T09:40:56.081Z,21.30
2019-04-07T09:42:10.036Z,21.50
2019-04-07T09:43:49.553Z,21.60
2019-04-07T09:45:12.676Z,21.80
2019-04-07T09:46:25.033Z,21.70
2019-04-07T09:47:58.813Z,21.80
2019-04-07T09:49:22.211Z,22.10
2019-04-07T09:50:42.958Z,22.10
2019-04-07T09:52:02.588Z,21.90
2019-04-07T09:53:37.079Z,21.80
2019-04-07T09:55:01.320Z,21.90
2019-04-07T09:56:44.052Z,22.00
2019-04-07T09:57:59.222Z,21.90
2019-04-07T09:59:29.667Z,22.00
2019-04-07T10:00:57.677Z,22.10
2019-04-07T10:02:21.415Z,22.30
2019-04-07T10:03:48.510Z,22.40
2019-04-07T10:05:19.717Z,22.40
2019-04-07T10:06:44.177Z,22.40
2019-04-07T10:08:04.369Z,22.20
2019-04-07T10:09:38.624Z,22.20
2019-04-07T10:11:07.108Z,22.20
2019-04-07T10:12:34.591Z,22.40
2019-04-07T10:14:10.729Z,22.40
2019-04-07T10:15:37.833Z,22.30
2019-04-07T10:16:51.761Z,22.10
2019-04-07T10:18:11.840Z,22.10
2019-04-07T10:19:54.088Z,22.20
2019-04-07T10:21:22.557Z,22.40
2019-04-07T10:22:47.333Z,22.30
2019-04-07T10:24:08.261Z,22.30
2019-04-07T10:25:27.953Z,22.30
2019-04-07T10:26:57.407Z,22.30
2019-04-07T10:28:22.303Z,22.40
2019-04-07T10:29:45.249Z,22.60
2019-04-07T10:31:07.751Z,22.70
2019-04-07T10:32:38.538Z,22.60
2019-04-07T10:33:50.477Z,22.60
2019-04-07T10:35:09.133Z,22.30
2019-04-07T10:36:27.057Z,22.30
2019-04-07T10:37:55.294Z,22.30
2019-04-07T10:39:34.928Z,22.50
2019-04-07T10:41:11.868Z,22.60
2019-04-07T10:42:38.878Z,22.80
2019-04-07T10:43:53.354Z,22.70
2019-04-07T10:45:04.822Z,22.70
2019-04-07T10:46:29.368Z,22.80
2019-04-07T10:47:41.211Z,22.90
2019-04-07T10:49:03.729Z,22.80
2019-04-07T10:50:28.603Z,22.90
2019-04-07T10:51:55.629Z,22.90
2019-04-07T10:53:09.369Z,22.70
2019-04-07T10:54:37.079Z,22.50
2019-04-07T10:55:52.822Z,22.30
2019-04-07T10:57:14.548Z,22.20
2019-04-07T10:58:48.297Z,22.20
2019-04-07T11:00:04.767Z,22.20
2019-04-07T11:01:26.663Z,22.30
2019-04-07T11:02:44.270Z,22.30
2019-04-07T11:04:06.300Z,22.10
2019-04-07T11:05:45.653Z,22.10
2019-04-07T11:07:03.046Z,21.90
2019-04-07T11:08:26.365Z,21.90
2019-04-07T11:09:40.638Z,22.10
2019-04-07T11:11:04.480Z,22.30
2019-04-07T11:12:32.345Z,22.30
2019-04-07T11:13:53.447Z,22.40
2019-04-07T11:15:27.096Z,22.40
2019-04-07T11:16:51.403Z,22.40
2019-04-07T11:18:19.003Z,22.50
2019-04-07T11:19:43.483Z,22.30
2019-04-07T11:21:02.224Z,22.30
2019-04-07T11:22:38.761Z,22.10
2019-04-07T11:24:03.988Z,21.80
2019-04-07T11:25:31.631Z,21.70
2019-04-07T11:27:04.931Z,21.30
2019-04-07T11:28:29.237Z,21.20
2019-04-07T11:29:41.657Z,21.10
2019-04-07T11:30:52.101Z,21.20
2019-04-07T11:32:17.746Z,21.40
2019-04-07T11:33:41.431Z,21.70
2019-04-07T11:35:14.884Z,22.00
2019-04-07T11:36:34.268Z,22.20
2019-04-07T11:38:01.479Z,22.40
2019-04-07T11:39:19.220Z,22.20
2019-04-07T11:40:48.916Z,22.20
2019-04-07T11:41:59.177Z,22.30
2019-04-07T11:43:42.432Z,22.40
2019-04-07T11:45:09.226Z,22.50
2019-04-07T11:46:24.116Z,22.60
2019-04-07T11:47:44.312Z,22.50
2019-04-07T11:48:59.035Z,22.50
2019-04-07T11:50:15.111Z,22.40
2019-04-07T11:51:34.644Z,22.50
2019-04-07T11:53:11.081Z,22.50
2019-04-07T11:54:27.481Z,22.30
2019-04-07T11:55:51.052Z,22.40
2019-04-07T11:57:13.940Z,22.60
2019-04-07T11:58:35.817Z,22.50
2019-04-07T11:59:59.013Z,22.30
2019-04-07T12:01:26.122Z,22.40
2019-04-07T12:03:06.087Z,22.30
2019-04-07T12:04:26.635Z,22.50
2019-04-07T12:05:50.783Z,22.90
2019-04-07T12:07:14.517Z,23.00
2019-04-07T12:08:44.651Z,23.00
2019-04-07T12:10:08.318Z,23.00
2019-04-07T12:11:29.927Z,22.80
2019-04-07T12:12:45.436Z,22.60
2019-04-07T12:14:15.048Z,22.40
2019-04-07T12:15:32.359Z,22.60
2019-04-07T12:16:55.040Z,22.50
2019-04-07T12:18:19.938Z,22.60
2019-04-07T12:19:39.816Z,22.80
2019-04-07T12:21:05.262Z,23.00
2019-04-07T12:22:31.559Z,22.90
2019-04-07T12:23:52.782Z,22.90
2019-04-07T12:25:23.329Z,22.90
2019-04-07T12:27:01.086Z,23.00
2019-04-07T12:28:42.210Z,22.90
2019-04-07T12:30:05.367Z,22.90
2019-04-07T12:31:22.722Z,23.00
2019-04-07T12:32:44.125Z,23.20
2019-04-07T12:34:09.515Z,23.50
2019-04-07T12:35:29.107Z,23.60
2019-04-07T12:37:06.379Z,23.70
2019-04-07T12:38:28.482Z,23.80
2019-04-07T12:39:55.501Z,23.90
2019-04-07T12:41:15.115Z,23.70
2019-04-07T12:42:26.731Z,23.70
2019-04-07T12:43:42.781Z,23.70
2019-04-07T12:44:57.081Z,23.70
2019-04-07T12:46:30.433Z,23.60
2019-04-07T12:48:04.650Z,23.40
2019-04-07T12:49:17.222Z,23.30
2019-04-07T12:50:54.123Z,23.50
2019-04-07T12:52:23.829Z,23.70
2019-04-07T12:53:47.848Z,23.80
2019-04-07T12:55:03.642Z,23.90
2019-04-07T12:56:32.097Z,23.60
2019-04-07T12:57:56.585Z,23.60
2019-04-07T12:59:30.413Z,23.40
2019-04-07T13:01:12.131Z,23.20
2019-04-07T13:02:33.791Z,23.30
2019-04-07T13:03:58.961Z,23.40
2019-04-07T13:05:30.064Z,23.30
2019-04-07T13:06:53.432Z,23.40
2019-04-07T13:08:24.108Z,23.40
2019-04-07T13:10:05.444Z,23.60
2019-04-07T13:11:31.195Z,23.60
2019-04-07T13:12:55.678Z,23.60
2019-04-07T13:14:18.417Z,23.50
2019-04-07T13:15:54.851Z,23.50
2019-04-07T13:17:17.009Z,23.50
2019-04-07T13:18:50.524Z,23.50
2019-04-07T13:20:07.255Z,23.50
2019-04-07T13:21:34.785Z,23.60
2019-04-07T13:23:02.179Z,23.50
2019-04-07T13:24:30.459Z,23.60
2019-04-07T13:26:00.822Z,23.80
2019-04-07T13:27:23.272Z,23.80
2019-04-07T13:28:44.558Z,23.70
2019-04-07T13:30:08.364Z,23.60
2019-04-07T13:31:19.235Z,23.50
2019-04-07T13:32:44.941Z,23.50
2019-04-07T13:34:09.410Z,23.50
2019-04-07T13:35:31.221Z,23.40
2019-04-07T13:36:45.162Z,23.60
2019-04-07T13:38:15.411Z,23.40
2019-04-07T13:39:41.506Z,23.40
2019-04-07T13:40:54.154Z,23.50
2019-04-07T13:42:29.238Z,23.20
2019-04-07T13:43:53.344Z,23.20
2019-04-07T13:45:26.368Z,23.00
2019-04-07T13:46:49.454Z,23.00
2019-04-07T13:48:15.811Z,23.00
2019-04-07T13:49:45.828Z,23.00
2019-04-07T13:51:25.128Z,23.10
2019-04-07T13:52:40.320Z,23.00
2019-04-07T13:53:59.868Z,23.00
2019-04-07T13:55:15.258Z,23.00
2019-04-07T13:56:51.989Z,23.00
2019-04-07T13:58:02.613Z,23.10
2019-04-07T13:59:22.651Z,23.00
2019-04-07T14:00:54.293Z,23.10
2019-04-07T14:02:17.599Z,22.90
2019-04-07T14:03:35.761Z,22.70
2019-04-07T14:04:46.624Z,22.70
2019-04-07T14:06:20.461Z,22.80
2019-04-07T14:07:43.926Z,23.00
2019-04-07T14:08:59.147Z,23.00
2019-04-07T14:10:28.408Z,23.00
2019-04-07T14:12:01.943Z,23.10
2019-04-07T14:13:10.419Z,23.20
2019-04-07T14:14:33.462Z,23.20
2019-04-07T14:16:04.021Z,23.10
2019-04-07T14:17:27.305Z,22.90
2019-04-07T14:18:54.349Z,22.80
2019-04-07T14:20:08.822Z,22.80
2019-04-07T14:21:36.210Z,22.80
2019-04-07T14:22:48.823Z,22.80
2019-04-07T14:24:19.818Z,23.00
2019-04-07T14:25:52.735Z,23.00
2019-04-07T14:27:04.438Z,23.10
2019-04-07T14:28:24.489Z,23.10
2019-04-07T14:29:45.980Z,23.20
2019-04-07T14:31:16.449Z,23.20
2019-04-07T14:32:33.940Z,23.10
2019-04-07T14:33:57.499Z,23.10
2019-04-07T14:35:12.966Z,23.10
2019-04-07T14:36:27.254Z,23.10
2019-04-07T14:37:54.696Z,23.00
2019-04-07T14:39:18.863Z,23.10
2019-04-07T14:40:49.038Z,23.10
2019-04-07T14:42:31.717Z,23.20
2019-04-07T14:43:44.264Z,23.20
2019-04-07T14:44:55.547Z,23.00
2019-04-07T14:46:21.163Z,23.00
2019-04-07T14:47:41.459Z,22.90
2019-04-07T14:49:05.518Z,22.70
2019-04-07T14:50:26.679Z,22.60
2019-04-07T14:51:51.463Z,22.60
2019-04-07T14:53:08.822Z,22.40
2019-04-07T14:54:31.908Z,22.40
2019-04-07T14:55:50.947Z,22.30
2019-04-07T14:57:11.599Z,22.40
2019-04-07T14:58:25.838Z,22.30
2019-04-07T14:59:54.526Z,22.20
2019-04-07T15:01:12.727Z,22.10
2019-04-07T15:02:17.955Z,22.10
2019-04-07T15:03:23.421Z,22.10
2019-04-07T15:04:43.358Z,22.20
2019-04-07T15:05:49.424Z,22.20
2019-04-07T15:07:09.234Z,22.20
2019-04-07T15:08:46.295Z,22.10
2019-04-07T15:09:56.551Z,22.00
2019-04-07T15:11:15.851Z,22.10
2019-04-07T15:12:40.420Z,22.00
2019-04-07T15:13:45.601Z,22.10
2019-04-07T15:14:50.779Z,22.00
2019-04-07T15:15:56.068Z,22.00
2019-04-07T15:17:01.340Z,22.00
2019-04-07T15:18:07.239Z,22.00
2019-04-07T15:19:12.434Z,22.00
2019-04-07T15:20:17.613Z,21.90
2019-04-07T15:21:23.864Z,21.90
2019-04-07T15:22:31.081Z,21.90
2019-04-07T15:23:36.896Z,21.90
2019-04-07T15:24:42.787Z,21.90
2019-04-07T15:25:48.177Z,21.70
2019-04-07T15:26:54.059Z,21.70
2019-04-07T15:28:00.399Z,21.60
2019-04-07T15:29:09.588Z,21.50
2019-04-07T15:30:16.904Z,21.50
2019-04-07T15:31:23.265Z,21.50
2019-04-07T15:32:31.338Z,21.50
2019-04-07T15:33:37.083Z,21.40
2019-04-07T15:34:43.358Z,21.40
2019-04-07T15:35:50.504Z,21.30
2019-04-07T15:36:56.783Z,21.20
2019-04-07T15:38:02.057Z,21.20
2019-04-07T15:39:09.848Z,21.10
2019-04-07T15:40:15.192Z,21.10
2019-04-07T15:41:22.170Z,21.10
2019-04-07T15:42:35.209Z,21.10
2019-04-07T15:43:35.289Z,21.10
2019-04-07T15:44:42.211Z,21.10
2019-04-07T15:45:48.745Z,21.00
2019-04-07T15:46:54.575Z,21.00
2019-04-07T15:48:00.681Z,21.00
2019-04-07T15:49:06.843Z,21.00
2019-04-07T15:50:13.755Z,21.10
2019-04-07T15:51:19.617Z,21.10
2019-04-07T15:52:24.891Z,21.20
2019-04-07T15:53:30.830Z,21.10
2019-04-07T15:54:37.063Z,21.10
2019-04-07T15:55:47.428Z,21.00
2019-04-07T15:56:50.155Z,21.00
2019-04-07T15:57:58.380Z,20.90
2019-04-07T15:59:03.648Z,20.90
2019-04-07T16:00:10.036Z,20.90
2019-04-07T16:01:16.097Z,20.90
2019-04-07T16:02:21.340Z,20.80
2019-04-07T16:03:26.633Z,20.70
2019-04-07T16:04:32.005Z,20.80
2019-04-07T16:05:42.010Z,20.70
2019-04-07T16:06:47.111Z,20.60
2019-04-07T16:07:53.084Z,20.60
2019-04-07T16:09:00.210Z,20.60
2019-04-07T16:10:05.926Z,20.50
2019-04-07T16:11:11.537Z,20.40
2019-04-07T16:12:16.856Z,20.40
2019-04-07T16:13:22.810Z,20.40
2019-04-07T16:14:28.083Z,20.30
2019-04-07T16:15:33.336Z,20.30
2019-04-07T16:16:40.330Z,20.30
2019-04-07T16:17:47.437Z,20.30
2019-04-07T16:18:55.373Z,20.20
2019-04-07T16:20:00.660Z,20.20
2019-04-07T16:21:09.331Z,20.20
2019-04-07T16:22:14.659Z,20.10
2019-04-07T16:23:21.002Z,20.10
2019-04-07T16:24:26.955Z,20.10